Alligator Point, Florida
Current Conditions -  °F | °C
As of 6:53 PM on Friday 24 Oct 2014 (Local Time) from KTLH Reporting Station
Few Clouds Few Clouds  
Wind Chill: 73°   Ceiling: Unl
Heat Index: 73°   Visibility: 10mi
Dew Point: 47°   Wind: 3mph
Humidity: 39%   Direction: 350°N
Pressure: 29.98"   Gusts: NA
Location:  30.0223°N, 84.3911°W
Report Text: KTLH 242253Z 35003KT 10SM FEW250 23/08 A2998 RMK AO2 SLP152 T02280083 $
Loading
Personal Weather Stations






























Interactive Weather Map New forecast layout! Learn more

10-Day Weather Forecast

Advertisements
Track Severe Weather on mobile